createdAt,value
2022-08-26T00:00:32.759Z,22.76
2022-08-26T00:01:32.737Z,22.77
2022-08-26T00:02:32.795Z,22.76
2022-08-26T00:03:32.714Z,22.73
2022-08-26T00:04:32.696Z,22.73
2022-08-26T00:05:32.686Z,22.72
2022-08-26T00:06:32.687Z,22.70
2022-08-26T00:07:32.670Z,22.68
2022-08-26T00:08:32.675Z,22.67
2022-08-26T00:09:32.646Z,22.67
2022-08-26T00:10:32.646Z,22.67
2022-08-26T00:11:32.626Z,22.64
2022-08-26T00:12:35.876Z,22.65
2022-08-26T00:13:32.633Z,22.64
2022-08-26T00:14:32.599Z,22.62
2022-08-26T00:16:47.801Z,22.62
2022-08-26T00:17:45.587Z,22.62
2022-08-26T00:18:45.568Z,22.60
2022-08-26T00:19:45.556Z,22.58
2022-08-26T00:20:45.550Z,22.60
2022-08-26T00:21:45.532Z,22.57
2022-08-26T00:22:45.564Z,22.55
2022-08-26T00:23:45.519Z,22.54
2022-08-26T00:24:47.816Z,22.55
2022-08-26T00:25:45.522Z,22.54
2022-08-26T00:26:45.522Z,22.52
2022-08-26T00:27:45.521Z,22.52
2022-08-26T00:28:45.526Z,22.51
2022-08-26T00:29:45.486Z,22.49
2022-08-26T00:30:45.442Z,22.47
2022-08-26T00:31:45.774Z,22.46
2022-08-26T00:32:46.377Z,22.46
2022-08-26T00:33:45.456Z,22.46
2022-08-26T00:34:45.401Z,22.45
2022-08-26T00:35:45.410Z,22.43
2022-08-26T00:36:45.394Z,22.40
2022-08-26T00:37:45.386Z,22.43
2022-08-26T00:38:45.389Z,22.40
2022-08-26T00:39:45.730Z,22.40
2022-08-26T00:40:45.339Z,22.40
2022-08-26T00:41:45.356Z,22.40
2022-08-26T00:42:45.871Z,22.40
2022-08-26T00:43:47.183Z,22.42
2022-08-26T00:44:45.299Z,22.40
2022-08-26T00:45:45.342Z,22.42
2022-08-26T00:46:46.947Z,22.40
2022-08-26T00:47:45.307Z,22.42
2022-08-26T00:48:45.276Z,22.42
2022-08-26T00:49:45.249Z,22.43
2022-08-26T00:50:45.236Z,22.42
2022-08-26T00:51:45.228Z,22.42
2022-08-26T00:52:45.228Z,22.42
2022-08-26T00:53:45.264Z,22.42
2022-08-26T00:54:45.217Z,22.43
2022-08-26T00:55:45.220Z,22.45
2022-08-26T00:56:45.209Z,22.45
2022-08-26T00:57:45.180Z,22.43
2022-08-26T00:58:45.178Z,22.43
2022-08-26T00:59:45.150Z,22.43
2022-08-26T01:00:45.359Z,22.42
2022-08-26T01:01:45.938Z,22.45
2022-08-26T01:02:46.898Z,22.43
2022-08-26T01:03:45.127Z,22.45
2022-08-26T01:04:45.081Z,22.45
2022-08-26T01:05:45.116Z,22.45
2022-08-26T01:06:45.095Z,22.45
2022-08-26T01:07:45.061Z,22.46
2022-08-26T01:08:45.083Z,22.45
2022-08-26T01:09:45.051Z,22.46
2022-08-26T01:10:45.246Z,22.47
2022-08-26T01:11:45.024Z,22.49
2022-08-26T01:12:45.023Z,22.49
2022-08-26T01:13:45.014Z,22.49
2022-08-26T01:14:46.549Z,22.49
2022-08-26T01:15:44.986Z,22.49
2022-08-26T01:16:44.995Z,22.52
2022-08-26T01:17:44.964Z,22.52
2022-08-26T01:18:44.966Z,22.51
2022-08-26T01:19:44.933Z,22.54
2022-08-26T01:20:44.938Z,22.55
2022-08-26T01:21:44.920Z,22.57
2022-08-26T01:22:44.925Z,22.57
2022-08-26T01:23:45.007Z,22.57
2022-08-26T01:24:44.926Z,22.57
2022-08-26T01:25:44.899Z,22.57
2022-08-26T01:26:44.883Z,22.58
2022-08-26T01:27:44.857Z,22.58
2022-08-26T01:28:44.875Z,22.58
2022-08-26T01:29:45.840Z,22.58
2022-08-26T01:30:44.840Z,22.58
2022-08-26T01:31:44.884Z,22.60
2022-08-26T01:32:44.802Z,22.58
2022-08-26T01:33:44.814Z,22.58
2022-08-26T01:34:44.782Z,22.57
2022-08-26T01:35:44.769Z,22.55
2022-08-26T01:36:49.220Z,22.55
2022-08-26T01:37:45.755Z,22.54
2022-08-26T01:38:44.780Z,22.52
2022-08-26T01:39:45.003Z,22.49
2022-08-26T01:40:44.748Z,22.47
2022-08-26T01:41:44.715Z,22.46
2022-08-26T01:42:44.703Z,22.45
2022-08-26T01:43:44.697Z,22.43
2022-08-26T01:44:44.684Z,22.42
2022-08-26T01:45:44.757Z,22.43
2022-08-26T01:46:44.657Z,22.39
2022-08-26T01:47:44.646Z,22.40
2022-08-26T01:48:44.643Z,22.37
2022-08-26T01:49:44.630Z,22.40
2022-08-26T01:50:44.629Z,22.40
2022-08-26T01:51:44.616Z,22.40
2022-08-26T01:52:44.586Z,22.40
2022-08-26T01:53:46.018Z,22.40
2022-08-26T01:54:46.368Z,22.37
2022-08-26T01:55:45.566Z,22.37
2022-08-26T01:56:44.573Z,22.39
2022-08-26T01:57:44.537Z,22.36
2022-08-26T01:58:44.549Z,22.35
2022-08-26T01:59:44.523Z,22.36
2022-08-26T02:00:44.563Z,22.35
2022-08-26T02:01:44.505Z,22.35
2022-08-26T02:02:44.502Z,22.35
2022-08-26T02:03:44.480Z,22.33
2022-08-26T02:04:44.534Z,22.36
2022-08-26T02:05:44.463Z,22.33
2022-08-26T02:06:44.472Z,22.30
2022-08-26T02:07:44.451Z,22.31
2022-08-26T02:08:44.444Z,22.31
2022-08-26T02:09:44.442Z,22.30
2022-08-26T02:10:44.423Z,22.30
2022-08-26T02:11:44.410Z,22.27
2022-08-26T02:12:44.385Z,22.28
2022-08-26T02:13:44.387Z,22.28
2022-08-26T02:14:44.525Z,22.28
2022-08-26T02:15:44.400Z,22.28
2022-08-26T02:16:44.429Z,22.28
2022-08-26T02:17:44.340Z,22.25
2022-08-26T02:18:44.320Z,22.25
2022-08-26T02:19:44.346Z,22.22
2022-08-26T02:20:44.305Z,22.24
2022-08-26T02:21:44.300Z,22.22
2022-08-26T02:22:45.221Z,22.21
2022-08-26T02:23:44.268Z,22.21
2022-08-26T02:24:44.270Z,22.20
2022-08-26T02:25:44.279Z,22.20
2022-08-26T02:26:44.238Z,22.18
2022-08-26T02:27:44.242Z,22.20
2022-08-26T02:28:44.263Z,22.20
2022-08-26T02:29:44.238Z,22.21
2022-08-26T02:30:44.200Z,22.17
2022-08-26T02:31:44.275Z,22.17
2022-08-26T02:32:44.206Z,22.17
2022-08-26T02:33:44.213Z,22.17
2022-08-26T02:34:44.152Z,22.17
2022-08-26T02:35:44.172Z,22.15
2022-08-26T02:36:44.134Z,22.17
2022-08-26T02:37:44.137Z,22.17
2022-08-26T02:38:44.112Z,22.15
2022-08-26T02:39:44.130Z,22.15
2022-08-26T02:40:44.114Z,22.15
2022-08-26T02:41:45.257Z,22.14
2022-08-26T02:42:44.068Z,22.14
2022-08-26T02:43:44.054Z,22.17
2022-08-26T02:44:44.111Z,22.14
2022-08-26T02:45:44.036Z,22.12
2022-08-26T02:46:47.244Z,22.14
2022-08-26T02:47:44.034Z,22.10
2022-08-26T02:48:44.029Z,22.10
2022-08-26T02:49:44.305Z,22.12
2022-08-26T02:50:43.986Z,22.12
2022-08-26T02:51:43.985Z,22.10
2022-08-26T02:52:43.966Z,22.09
2022-08-26T02:53:43.991Z,22.09
2022-08-26T02:54:43.963Z,22.09
2022-08-26T02:55:43.961Z,22.09
2022-08-26T02:56:43.921Z,22.09
2022-08-26T02:57:43.910Z,22.09
2022-08-26T02:58:43.922Z,22.09
2022-08-26T02:59:43.930Z,22.09
2022-08-26T03:00:53.050Z,22.10
2022-08-26T03:01:44.914Z,22.10
2022-08-26T03:02:43.852Z,22.12
2022-08-26T03:03:43.859Z,22.12
2022-08-26T03:04:57.762Z,22.14
2022-08-26T03:05:44.855Z,22.10
2022-08-26T03:06:43.822Z,22.12
2022-08-26T03:07:45.215Z,22.12
2022-08-26T03:08:43.802Z,22.14
2022-08-26T03:09:43.809Z,22.14
2022-08-26T03:10:43.773Z,22.17
2022-08-26T03:11:43.767Z,22.15
2022-08-26T03:12:43.763Z,22.18
2022-08-26T03:13:43.773Z,22.18
2022-08-26T03:14:43.754Z,22.18
2022-08-26T03:15:43.797Z,22.18
2022-08-26T03:16:43.724Z,22.18
2022-08-26T03:17:43.710Z,22.20
2022-08-26T03:18:43.699Z,22.21
2022-08-26T03:19:44.696Z,22.20
2022-08-26T03:20:43.962Z,22.22
2022-08-26T03:21:43.705Z,22.21
2022-08-26T03:22:43.596Z,22.20
2022-08-26T03:23:43.646Z,22.21
2022-08-26T03:24:46.183Z,22.21
2022-08-26T03:25:43.652Z,22.21
2022-08-26T03:26:52.183Z,22.21
2022-08-26T03:27:44.575Z,22.22
2022-08-26T03:28:43.561Z,22.22
2022-08-26T03:29:43.534Z,22.21
2022-08-26T03:30:45.099Z,22.21
2022-08-26T03:31:43.567Z,22.20
2022-08-26T03:32:43.513Z,22.18
2022-08-26T03:33:43.544Z,22.18
2022-08-26T03:34:43.483Z,22.20
2022-08-26T03:35:43.515Z,22.18
2022-08-26T03:36:43.459Z,22.18
2022-08-26T03:37:43.452Z,22.18
2022-08-26T03:38:43.429Z,22.18
2022-08-26T03:39:43.418Z,22.18
2022-08-26T03:40:43.433Z,22.15
2022-08-26T03:41:43.415Z,22.18
2022-08-26T03:42:45.287Z,22.17
2022-08-26T03:43:43.385Z,22.18
2022-08-26T03:44:43.389Z,22.18
2022-08-26T03:45:43.387Z,22.17
2022-08-26T03:46:43.961Z,22.15
2022-08-26T03:47:43.339Z,22.14
2022-08-26T03:48:43.337Z,22.14
2022-08-26T03:49:43.347Z,22.14
2022-08-26T03:50:43.308Z,22.14
2022-08-26T03:51:43.306Z,22.17
2022-08-26T03:52:44.174Z,22.14
2022-08-26T03:53:43.275Z,22.10
2022-08-26T03:54:43.510Z,22.14
2022-08-26T03:55:43.364Z,22.10
2022-08-26T03:56:43.249Z,22.15
2022-08-26T03:57:43.243Z,22.12
2022-08-26T03:58:43.219Z,22.14
2022-08-26T03:59:43.229Z,22.10
2022-08-26T04:00:43.227Z,22.14
2022-08-26T04:01:43.262Z,22.10
2022-08-26T04:02:43.228Z,22.12
2022-08-26T04:03:43.178Z,22.10
2022-08-26T04:04:43.171Z,22.09
2022-08-26T04:05:43.179Z,22.09
2022-08-26T04:06:43.179Z,22.07
2022-08-26T04:07:43.152Z,22.07
2022-08-26T04:08:43.195Z,22.06
2022-08-26T04:09:43.118Z,22.06
2022-08-26T04:10:43.113Z,22.06
2022-08-26T04:11:43.093Z,22.06
2022-08-26T04:12:43.103Z,22.06
2022-08-26T04:13:43.080Z,22.03
2022-08-26T04:14:43.053Z,22.05
2022-08-26T04:15:43.095Z,22.03
2022-08-26T04:16:43.050Z,22.02
2022-08-26T04:17:43.725Z,22.02
2022-08-26T04:18:46.831Z,22.03
2022-08-26T04:19:43.039Z,22.02
2022-08-26T04:20:43.016Z,22.02
2022-08-26T04:21:43.028Z,22.02
2022-08-26T04:22:42.976Z,22.02
2022-08-26T04:23:47.679Z,22.00
2022-08-26T04:24:44.004Z,22.02
2022-08-26T04:25:42.961Z,22.02
2022-08-26T04:26:43.771Z,22.00
2022-08-26T04:27:42.931Z,22.00
2022-08-26T04:28:42.927Z,22.00
2022-08-26T04:29:42.930Z,22.00
2022-08-26T04:30:42.970Z,21.96
2022-08-26T04:31:42.932Z,21.96
2022-08-26T04:32:42.897Z,21.94
2022-08-26T04:33:42.868Z,21.92
2022-08-26T04:34:42.856Z,21.91
2022-08-26T04:35:43.223Z,21.91
2022-08-26T04:36:42.831Z,21.91
2022-08-26T04:37:43.032Z,21.94
2022-08-26T04:38:42.814Z,21.96
2022-08-26T04:39:42.814Z,21.98
2022-08-26T04:40:42.811Z,21.99
2022-08-26T04:41:42.785Z,21.98
2022-08-26T04:42:42.773Z,22.03
2022-08-26T04:43:42.752Z,22.03
2022-08-26T04:44:42.745Z,22.06
2022-08-26T04:45:42.765Z,22.07
2022-08-26T04:46:43.671Z,22.09
2022-08-26T04:47:42.714Z,22.07
2022-08-26T04:48:42.712Z,22.10
2022-08-26T04:49:42.715Z,22.12
2022-08-26T04:50:42.985Z,22.17
2022-08-26T04:51:43.913Z,22.17
2022-08-26T04:52:42.666Z,22.18
2022-08-26T04:53:42.650Z,22.22
2022-08-26T04:54:42.653Z,22.24
2022-08-26T04:55:42.882Z,22.28
2022-08-26T04:56:42.628Z,22.31
2022-08-26T04:57:42.635Z,22.37
2022-08-26T04:58:42.588Z,22.43
2022-08-26T04:59:42.590Z,22.49
2022-08-26T05:00:42.575Z,22.54
2022-08-26T05:01:42.611Z,22.60
2022-08-26T05:02:42.549Z,22.61
2022-08-26T05:03:42.587Z,22.64
2022-08-26T05:04:42.552Z,22.68
2022-08-26T05:05:42.540Z,22.73
2022-08-26T05:06:42.550Z,22.76
2022-08-26T05:07:42.521Z,22.83
2022-08-26T05:08:42.492Z,22.92
2022-08-26T05:09:42.483Z,23.00
2022-08-26T05:10:42.492Z,23.15
2022-08-26T05:11:42.485Z,23.32
2022-08-26T05:12:42.443Z,23.61
2022-08-26T05:13:42.433Z,23.87
2022-08-26T05:14:42.421Z,24.12
2022-08-26T05:15:42.457Z,24.34
2022-08-26T05:16:42.435Z,24.55
2022-08-26T05:17:42.389Z,24.76
2022-08-26T05:18:42.388Z,24.91
2022-08-26T05:19:42.930Z,25.15
2022-08-26T05:20:42.367Z,25.35
2022-08-26T05:21:42.366Z,25.58
2022-08-26T05:22:42.345Z,25.77
2022-08-26T05:23:42.340Z,25.90
2022-08-26T05:24:42.325Z,25.98
2022-08-26T05:25:42.326Z,26.06
2022-08-26T05:26:42.341Z,26.07
2022-08-26T05:27:42.325Z,26.15
2022-08-26T05:28:42.287Z,26.20
2022-08-26T05:29:42.289Z,26.17
2022-08-26T05:30:42.321Z,26.20
2022-08-26T05:31:42.269Z,25.98
2022-08-26T05:32:42.250Z,25.85
2022-08-26T05:33:42.268Z,25.67
2022-08-26T05:34:42.942Z,25.27
2022-08-26T05:35:42.227Z,25.02
2022-08-26T05:36:42.221Z,24.90
2022-08-26T05:37:42.202Z,24.87
2022-08-26T05:38:42.218Z,25.21
2022-08-26T05:39:43.452Z,25.61
2022-08-26T05:40:43.166Z,25.87
2022-08-26T05:41:42.163Z,26.23
2022-08-26T05:42:42.203Z,26.37
2022-08-26T05:43:42.135Z,26.47
2022-08-26T05:44:53.927Z,26.69
2022-08-26T05:45:46.165Z,26.88
2022-08-26T05:46:42.176Z,27.14
2022-08-26T05:47:42.088Z,27.40
2022-08-26T05:48:44.210Z,27.62
2022-08-26T05:49:43.750Z,27.47
2022-08-26T05:50:43.073Z,27.47
2022-08-26T05:51:42.085Z,27.57
2022-08-26T05:52:42.066Z,27.32
2022-08-26T05:53:43.921Z,27.25
2022-08-26T05:54:43.039Z,27.36
2022-08-26T05:55:42.024Z,27.55
2022-08-26T05:56:42.030Z,27.59
2022-08-26T05:57:42.884Z,27.21
2022-08-26T05:58:41.982Z,27.29
2022-08-26T05:59:42.002Z,27.29
2022-08-26T06:00:42.010Z,27.39
2022-08-26T06:01:42.026Z,27.57
2022-08-26T06:02:41.973Z,27.75
2022-08-26T06:03:41.923Z,27.99
2022-08-26T06:04:41.929Z,27.97
2022-08-26T06:05:41.920Z,27.81
2022-08-26T06:06:42.810Z,27.67
2022-08-26T06:07:41.904Z,27.79
2022-08-26T06:08:41.885Z,27.81
2022-08-26T06:09:41.866Z,27.94
2022-08-26T06:10:41.860Z,28.14
2022-08-26T06:11:41.876Z,27.88
2022-08-26T06:12:41.917Z,27.92
2022-08-26T06:13:41.826Z,27.87
2022-08-26T06:14:41.813Z,28.04
2022-08-26T06:15:42.001Z,28.03
2022-08-26T06:16:41.834Z,28.09
2022-08-26T06:17:41.837Z,27.90
2022-08-26T06:18:41.802Z,27.75
2022-08-26T06:19:41.767Z,27.63
2022-08-26T06:20:41.926Z,27.55
2022-08-26T06:21:41.751Z,27.65
2022-08-26T06:22:41.776Z,27.90
2022-08-26T06:23:41.772Z,27.90
2022-08-26T06:24:41.729Z,27.82
2022-08-26T06:25:41.814Z,27.67
2022-08-26T06:26:42.648Z,27.65
2022-08-26T06:27:41.702Z,27.47
2022-08-26T06:28:43.516Z,27.36
2022-08-26T06:29:41.681Z,27.14
2022-08-26T06:30:41.739Z,26.95
2022-08-26T06:31:41.707Z,26.87
2022-08-26T06:32:41.632Z,26.95
2022-08-26T06:33:41.666Z,27.03
2022-08-26T06:34:41.630Z,27.02
2022-08-26T06:35:41.672Z,27.00
2022-08-26T06:36:41.645Z,26.91
2022-08-26T06:37:41.593Z,26.95
2022-08-26T06:38:41.685Z,27.04
2022-08-26T06:39:41.610Z,26.94
2022-08-26T06:40:41.569Z,26.94
2022-08-26T06:41:43.426Z,26.97
2022-08-26T06:42:41.554Z,26.84
2022-08-26T06:43:41.573Z,26.73
2022-08-26T06:44:41.520Z,26.52
2022-08-26T06:45:41.499Z,26.32
2022-08-26T06:46:41.551Z,26.35
2022-08-26T06:47:41.522Z,26.28
2022-08-26T06:48:41.480Z,26.12
2022-08-26T06:49:41.475Z,26.02
2022-08-26T06:50:41.460Z,25.85
2022-08-26T06:51:41.441Z,25.70
2022-08-26T06:52:41.435Z,25.51
2022-08-26T06:53:41.440Z,25.54
2022-08-26T06:54:42.344Z,25.54
2022-08-26T06:55:41.753Z,25.58
2022-08-26T06:56:41.396Z,25.60
2022-08-26T06:57:41.670Z,25.52
2022-08-26T06:58:41.401Z,25.45
2022-08-26T06:59:41.393Z,25.50
2022-08-26T07:00:41.646Z,25.52
2022-08-26T07:01:42.804Z,25.57
2022-08-26T07:02:41.466Z,25.52
2022-08-26T07:03:42.323Z,25.55
2022-08-26T07:04:41.306Z,25.61
2022-08-26T07:05:41.354Z,25.70
2022-08-26T07:06:41.288Z,25.62
2022-08-26T07:07:41.321Z,25.52
2022-08-26T07:08:41.448Z,25.45
2022-08-26T07:09:41.261Z,25.42
2022-08-26T07:10:41.269Z,25.35
2022-08-26T07:11:41.273Z,25.38
2022-08-26T07:12:41.250Z,25.46
2022-08-26T07:13:41.230Z,25.51
2022-08-26T07:14:41.213Z,25.55
2022-08-26T07:15:42.248Z,25.60
2022-08-26T07:16:41.229Z,25.67
2022-08-26T07:17:41.304Z,25.69
2022-08-26T07:18:41.163Z,25.65
2022-08-26T07:19:41.157Z,25.72
2022-08-26T07:20:42.284Z,25.75
2022-08-26T07:21:41.134Z,25.76
2022-08-26T07:22:41.162Z,25.79
2022-08-26T07:23:41.129Z,25.76
2022-08-26T07:24:41.114Z,25.87
2022-08-26T07:25:41.129Z,25.83
2022-08-26T07:26:43.021Z,25.88
2022-08-26T07:27:41.141Z,25.92
2022-08-26T07:28:41.126Z,25.94
2022-08-26T07:29:41.075Z,25.99
2022-08-26T07:30:41.165Z,26.01
2022-08-26T07:31:42.471Z,26.02
2022-08-26T07:32:41.034Z,26.12
2022-08-26T07:33:41.066Z,26.17
2022-08-26T07:34:41.854Z,26.18
2022-08-26T07:35:40.991Z,26.23
2022-08-26T07:36:40.997Z,26.35
2022-08-26T07:37:40.978Z,26.48
2022-08-26T07:38:41.076Z,26.55
2022-08-26T07:39:41.017Z,26.52
2022-08-26T07:40:40.941Z,26.44
2022-08-26T07:41:40.957Z,26.48
2022-08-26T07:42:40.921Z,26.58
2022-08-26T07:43:40.929Z,26.62
2022-08-26T07:44:40.923Z,26.60
2022-08-26T07:45:40.921Z,26.67
2022-08-26T07:46:40.887Z,26.75
2022-08-26T07:47:40.871Z,26.63
2022-08-26T07:48:40.878Z,26.66
2022-08-26T07:49:41.895Z,26.80
2022-08-26T07:50:49.375Z,26.95
2022-08-26T07:51:41.850Z,27.02
2022-08-26T07:52:40.814Z,27.00
2022-08-26T07:53:40.825Z,27.03
2022-08-26T07:54:40.803Z,27.06
2022-08-26T07:55:40.804Z,27.12
2022-08-26T07:56:40.776Z,27.14
2022-08-26T07:57:40.766Z,27.28
2022-08-26T07:58:40.777Z,27.31
2022-08-26T07:59:40.765Z,27.09
2022-08-26T08:00:40.740Z,27.18
2022-08-26T08:01:40.809Z,27.07
2022-08-26T08:02:41.890Z,27.19
2022-08-26T08:03:40.742Z,27.28
2022-08-26T08:04:40.734Z,27.36
2022-08-26T08:05:41.094Z,27.50
2022-08-26T08:06:40.690Z,27.62
2022-08-26T08:07:44.993Z,27.63
2022-08-26T08:08:40.690Z,27.50
2022-08-26T08:09:40.854Z,27.47
2022-08-26T08:10:40.656Z,27.43
2022-08-26T08:11:40.662Z,27.41
2022-08-26T08:12:40.643Z,27.40
2022-08-26T08:13:40.642Z,27.49
2022-08-26T08:14:40.592Z,27.51
2022-08-26T08:15:40.587Z,27.51
2022-08-26T08:16:45.928Z,27.55
2022-08-26T08:17:41.614Z,27.41
2022-08-26T08:18:40.589Z,27.29
2022-08-26T08:19:40.588Z,27.34
2022-08-26T08:20:42.302Z,27.55
2022-08-26T08:21:40.634Z,27.49
2022-08-26T08:22:40.519Z,27.54
2022-08-26T08:23:41.020Z,27.54
2022-08-26T08:24:40.525Z,27.50
2022-08-26T08:25:40.478Z,27.55
2022-08-26T08:26:40.537Z,27.54
2022-08-26T08:27:40.468Z,27.43
2022-08-26T08:28:40.479Z,27.46
2022-08-26T08:29:40.447Z,27.59
2022-08-26T08:30:40.585Z,27.69
2022-08-26T08:31:57.974Z,27.84
2022-08-26T08:32:41.481Z,28.03
2022-08-26T08:33:40.422Z,28.17
2022-08-26T08:35:40.433Z,28.49
2022-08-26T08:36:40.386Z,28.34
2022-08-26T08:37:40.387Z,28.12
2022-08-26T08:38:40.389Z,28.04
2022-08-26T08:39:40.379Z,28.09
2022-08-26T08:40:40.379Z,28.15
2022-08-26T08:41:40.333Z,28.12
2022-08-26T08:42:40.403Z,28.06
2022-08-26T08:43:40.312Z,28.15
2022-08-26T08:44:40.335Z,28.15
2022-08-26T08:45:40.418Z,28.30
2022-08-26T08:46:40.301Z,28.30
2022-08-26T08:47:40.275Z,28.33
2022-08-26T08:48:40.300Z,28.41
2022-08-26T08:49:40.278Z,28.22
2022-08-26T08:50:40.265Z,28.22
2022-08-26T08:51:40.248Z,28.33
2022-08-26T08:52:40.234Z,28.34
2022-08-26T08:53:40.518Z,28.37
2022-08-26T08:54:40.205Z,28.61
2022-08-26T08:55:40.200Z,28.66
2022-08-26T08:56:40.191Z,28.68
2022-08-26T08:57:40.269Z,28.66
2022-08-26T08:58:40.171Z,28.58
2022-08-26T08:59:40.142Z,28.48
2022-08-26T09:00:40.144Z,28.51
2022-08-26T09:01:40.215Z,28.49
2022-08-26T09:02:40.180Z,28.46
2022-08-26T09:03:40.158Z,28.55
2022-08-26T09:04:40.148Z,28.70
2022-08-26T09:05:40.094Z,28.70
2022-08-26T09:06:40.999Z,28.70
2022-08-26T09:07:40.098Z,28.77
2022-08-26T09:08:40.063Z,28.88
2022-08-26T09:09:40.121Z,28.83
2022-08-26T09:10:40.070Z,28.76
2022-08-26T09:11:40.044Z,28.88
2022-08-26T09:12:40.035Z,29.05
2022-08-26T09:13:40.014Z,29.05
2022-08-26T09:14:40.069Z,29.09
2022-08-26T09:15:39.973Z,28.92
2022-08-26T09:16:40.096Z,28.92
2022-08-26T09:17:39.974Z,28.93
2022-08-26T09:18:40.003Z,29.12
2022-08-26T09:19:39.944Z,29.09
2022-08-26T09:20:39.980Z,29.08
2022-08-26T09:21:39.940Z,29.12
2022-08-26T09:22:39.945Z,29.12
2022-08-26T09:23:41.775Z,29.14
2022-08-26T09:24:41.871Z,29.02
2022-08-26T09:25:40.888Z,29.04
2022-08-26T09:26:40.051Z,29.06
2022-08-26T09:27:39.862Z,29.14
2022-08-26T09:28:39.871Z,29.34
2022-08-26T09:29:39.869Z,29.33
2022-08-26T09:30:39.889Z,29.39
2022-08-26T09:31:39.883Z,29.42
2022-08-26T09:32:39.852Z,29.43
2022-08-26T09:33:39.846Z,29.48
2022-08-26T09:34:39.807Z,29.34
2022-08-26T09:35:39.783Z,29.48
2022-08-26T09:36:41.431Z,29.42
2022-08-26T09:37:39.825Z,29.51
2022-08-26T09:38:39.929Z,29.89
2022-08-26T09:39:39.738Z,29.97
2022-08-26T09:40:39.730Z,29.97
2022-08-26T09:41:39.722Z,29.89
2022-08-26T09:42:39.739Z,29.87
2022-08-26T09:43:39.706Z,29.92
2022-08-26T09:44:39.703Z,29.90
2022-08-26T09:45:39.775Z,29.90
2022-08-26T09:47:39.659Z,30.26
2022-08-26T09:48:40.995Z,30.26
2022-08-26T09:49:39.678Z,30.15
2022-08-26T09:50:39.720Z,30.04
2022-08-26T09:51:39.643Z,29.97
2022-08-26T09:52:40.472Z,30.00
2022-08-26T09:53:39.667Z,30.07
2022-08-26T09:54:39.604Z,29.89
2022-08-26T09:55:40.287Z,29.85
2022-08-26T09:56:39.603Z,29.86
2022-08-26T09:57:39.565Z,29.89
2022-08-26T09:58:39.574Z,29.97
2022-08-26T09:59:39.542Z,29.95
2022-08-26T10:00:39.551Z,29.76
2022-08-26T10:01:39.588Z,29.63
2022-08-26T10:02:39.516Z,29.65
2022-08-26T10:03:39.525Z,29.65
2022-08-26T10:04:39.585Z,29.73
2022-08-26T10:05:39.556Z,29.76
2022-08-26T10:06:39.479Z,29.82
2022-08-26T10:07:39.497Z,29.83
2022-08-26T10:08:39.476Z,29.83
2022-08-26T10:09:39.470Z,29.89
2022-08-26T10:10:39.453Z,29.89
2022-08-26T10:11:39.425Z,30.04
2022-08-26T10:12:39.420Z,30.15
2022-08-26T10:13:39.411Z,30.15
2022-08-26T10:14:39.445Z,30.19
2022-08-26T10:15:39.387Z,30.27
2022-08-26T10:16:39.411Z,30.22
2022-08-26T10:17:39.365Z,30.08
2022-08-26T10:18:39.350Z,30.05
2022-08-26T10:19:41.697Z,29.98
2022-08-26T10:20:40.340Z,29.95
2022-08-26T10:21:39.332Z,29.85
2022-08-26T10:22:39.313Z,30.01
2022-08-26T10:24:39.313Z,30.08
2022-08-26T10:25:39.336Z,30.07
2022-08-26T10:26:39.280Z,30.01
2022-08-26T10:27:48.370Z,30.05
2022-08-26T10:28:40.259Z,30.19
2022-08-26T10:29:39.272Z,30.27
2022-08-26T10:30:39.228Z,30.35
2022-08-26T10:31:40.553Z,30.22
2022-08-26T10:32:41.511Z,30.10
2022-08-26T10:33:39.223Z,30.05
2022-08-26T10:34:39.219Z,30.11
2022-08-26T10:35:39.179Z,30.29
2022-08-26T10:36:52.298Z,30.38
2022-08-26T10:37:40.161Z,30.60
2022-08-26T10:38:39.149Z,30.75
2022-08-26T10:39:39.181Z,30.83
2022-08-26T10:40:39.168Z,30.84
2022-08-26T10:41:39.143Z,30.99
2022-08-26T10:42:39.131Z,31.01
2022-08-26T10:43:40.925Z,30.89
2022-08-26T10:44:39.113Z,30.88
2022-08-26T10:45:39.133Z,30.82
2022-08-26T10:46:39.088Z,30.82
2022-08-26T10:47:39.132Z,31.01
2022-08-26T10:48:39.065Z,31.16
2022-08-26T10:49:39.064Z,31.31
2022-08-26T10:50:39.755Z,31.20
2022-08-26T10:51:39.038Z,31.31
2022-08-26T10:52:39.020Z,31.53
2022-08-26T10:53:39.011Z,31.58
2022-08-26T10:54:39.512Z,31.72
2022-08-26T10:55:38.993Z,31.68
2022-08-26T10:56:38.980Z,31.50
2022-08-26T10:57:38.985Z,31.36
2022-08-26T10:58:38.967Z,31.34
2022-08-26T10:59:38.941Z,31.28
2022-08-26T11:00:38.968Z,31.28
2022-08-26T11:01:40.654Z,31.28
2022-08-26T11:02:38.925Z,30.95
2022-08-26T11:03:39.081Z,30.60
2022-08-26T11:04:38.985Z,30.35
2022-08-26T11:05:38.911Z,30.34
2022-08-26T11:06:38.876Z,30.38
2022-08-26T11:07:38.884Z,30.37
2022-08-26T11:08:38.924Z,30.26
2022-08-26T11:09:38.852Z,30.23
2022-08-26T11:10:38.898Z,30.08
2022-08-26T11:11:40.016Z,29.97
2022-08-26T11:12:38.828Z,29.95
2022-08-26T11:13:41.605Z,29.89
2022-08-26T11:14:53.485Z,29.82
2022-08-26T11:15:39.846Z,29.79
2022-08-26T11:16:42.965Z,29.80
2022-08-26T11:17:39.797Z,29.74
2022-08-26T11:18:38.754Z,29.55
2022-08-26T11:19:58.889Z,29.51
2022-08-26T11:20:42.020Z,29.57
2022-08-26T11:21:38.747Z,29.58
2022-08-26T11:22:47.616Z,29.64
2022-08-26T11:23:40.351Z,29.67
2022-08-26T11:24:38.731Z,29.68
2022-08-26T11:25:38.697Z,29.73
2022-08-26T11:26:55.707Z,29.73
2022-08-26T11:27:39.698Z,29.70
2022-08-26T11:28:38.652Z,29.65
2022-08-26T11:29:38.707Z,29.60
2022-08-26T11:30:38.637Z,29.48
2022-08-26T11:31:38.853Z,29.43
2022-08-26T11:32:38.617Z,29.43
2022-08-26T11:33:38.623Z,29.52
2022-08-26T11:34:39.361Z,29.58
2022-08-26T11:35:38.614Z,29.65
2022-08-26T11:36:38.588Z,29.70
2022-08-26T11:37:40.606Z,29.70
2022-08-26T11:38:38.655Z,29.73
2022-08-26T11:39:39.363Z,29.78
2022-08-26T11:40:39.235Z,29.78
2022-08-26T11:41:38.544Z,29.76
2022-08-26T11:42:38.648Z,29.80
2022-08-26T11:43:38.503Z,29.83
2022-08-26T11:44:38.514Z,29.85
2022-08-26T11:45:38.579Z,29.87
2022-08-26T11:46:38.504Z,29.94
2022-08-26T11:47:38.526Z,29.97
2022-08-26T11:48:38.469Z,30.00
2022-08-26T11:49:38.510Z,30.02
2022-08-26T11:50:38.489Z,30.02
2022-08-26T11:51:40.544Z,30.07
2022-08-26T11:52:38.429Z,30.04
2022-08-26T11:53:38.407Z,30.01
2022-08-26T11:54:38.404Z,29.92
2022-08-26T11:55:38.383Z,29.85
2022-08-26T11:56:38.404Z,29.79
2022-08-26T11:57:38.443Z,29.73
2022-08-26T11:58:38.358Z,29.70
2022-08-26T11:59:38.349Z,29.63
2022-08-26T12:00:38.332Z,29.55
2022-08-26T12:01:39.394Z,29.46
2022-08-26T12:02:38.350Z,29.34
2022-08-26T12:03:38.391Z,29.30
2022-08-26T12:04:38.418Z,29.23
2022-08-26T12:05:38.319Z,29.12
2022-08-26T12:06:44.992Z,29.02
2022-08-26T12:07:39.927Z,28.86
2022-08-26T12:08:38.286Z,28.51
2022-08-26T12:09:38.249Z,28.29
2022-08-26T12:10:38.285Z,27.66
2022-08-26T12:11:38.281Z,26.67
2022-08-26T12:12:38.225Z,26.13
2022-08-26T12:13:38.218Z,25.92
2022-08-26T12:14:38.201Z,25.61
2022-08-26T12:15:38.206Z,25.30
2022-08-26T12:16:38.209Z,24.98
2022-08-26T12:17:38.157Z,24.73
2022-08-26T12:18:38.153Z,24.58
2022-08-26T12:19:38.140Z,24.52
2022-08-26T12:20:38.137Z,24.46
2022-08-26T12:21:38.165Z,24.35
2022-08-26T12:22:38.139Z,24.21
2022-08-26T12:23:38.128Z,24.15
2022-08-26T12:24:38.087Z,24.05
2022-08-26T12:25:38.097Z,23.97
2022-08-26T12:26:38.103Z,23.94
2022-08-26T12:27:38.073Z,23.84
2022-08-26T12:28:38.073Z,23.78
2022-08-26T12:29:38.042Z,23.69
2022-08-26T12:30:38.033Z,23.63
2022-08-26T12:31:38.152Z,23.55
2022-08-26T12:32:38.047Z,23.53
2022-08-26T12:33:39.058Z,23.53
2022-08-26T12:34:38.016Z,23.53
2022-08-26T12:35:37.997Z,23.51
2022-08-26T12:36:38.664Z,23.53
2022-08-26T12:37:38.014Z,23.48
2022-08-26T12:38:38.012Z,23.43
2022-08-26T12:39:37.965Z,23.47
2022-08-26T12:40:37.960Z,23.40
2022-08-26T12:41:37.960Z,23.40
2022-08-26T12:42:38.135Z,23.38
2022-08-26T12:43:37.922Z,23.38
2022-08-26T12:44:37.940Z,23.35
2022-08-26T12:45:37.944Z,23.33
2022-08-26T12:46:37.939Z,23.32
2022-08-26T12:47:43.048Z,23.31
2022-08-26T12:48:38.960Z,23.27
2022-08-26T12:49:37.947Z,23.22
2022-08-26T12:50:38.518Z,23.19
2022-08-26T12:51:37.854Z,23.20
2022-08-26T12:52:37.844Z,23.16
2022-08-26T12:53:37.831Z,23.12
2022-08-26T12:54:37.826Z,23.07
2022-08-26T12:55:37.806Z,23.00
2022-08-26T12:56:37.827Z,22.95